Time;durP1;ratioP1;P1;durP2;ratioP2;P2;SDS_P1;SDS_P2;PMS_P1;PMS_P2;Temp;Humidity;BMP_temperature;BMP_pressure;BME280_temperature;BME280_humidity;BME280_pressure;Samples;Min_cycle;Max_cycle;Signal;HPM_P1;HPM_P2
2022/11/04 00:01:14;;;;;;;;;;;;;;;;;;5050016;28;19936;-60
2022/11/04 00:03:40;;;;;;;;;;;;;;;;;;5049903;28;19943;-60
2022/11/04 00:06:06;;;;;;;;;;;;;;;;;;5049721;28;20365;-61
2022/11/04 00:08:32;;;;;;;;;;;;;;;;;;5050038;28;19912;-60
2022/11/04 00:13:42;;;;;;;;;;;;;;;;;;5049881;28;19966;-62
2022/11/04 00:18:52;;;;;;;;;;;;;;;;;;5049388;28;19929;-61
2022/11/04 00:29:32;;;;;;;;;;;;;;;;;;5049726;28;19916;-61
2022/11/04 00:34:43;;;;;;;;;;;;;;;;;;5049164;28;19986;-61
2022/11/04 00:37:09;;;;;;;;;;;;;;;;;;5049394;28;19955;-61
2022/11/04 00:39:34;;;;;;;;;;;;;;;;;;5049653;28;19916;-61
2022/11/04 00:42:00;;;;;;;;;;;;;;;;;;5045627;28;19932;-61
2022/11/04 00:44:26;;;;;;;;;;;;;;;;;;5049580;28;20051;-60
2022/11/04 00:46:52;;;;;;;;;;;;;;;;;;5049363;28;19917;-61
2022/11/04 00:49:18;;;;;;;;;;;;;;;;;;5048931;28;19919;-61
2022/11/04 00:51:44;;;;;;;;;;;;;;;;;;5049554;28;19908;-60
2022/11/04 00:54:10;;;;;;;;;;;;;;;;;;5049146;28;19917;-60
2022/11/04 00:56:36;;;;;;;;;;;;;;;;;;5049568;28;19908;-60
2022/11/04 00:59:01;;;;;;;;;;;;;;;;;;5049374;28;20304;-60
2022/11/04 01:01:27;;;;;;;;;;;;;;;;;;5049612;28;19952;-60
2022/11/04 01:03:53;;;;;;;;;;;;;;;;;;5048991;28;20381;-60
2022/11/04 01:06:19;;;;;;;;;;;;;;;;;;5049446;28;19913;-61
2022/11/04 01:08:45;;;;;;;;;;;;;;;;;;5031660;28;20388;-61
2022/11/04 01:11:11;;;;;;;;;;;;;;;;;;5031032;28;20011;-61
2022/11/04 01:13:37;;;;;;;;;;;;;;;;;;5049716;28;19912;-60
2022/11/04 01:16:03;;;;;;;;;;;;;;;;;;5049050;28;20016;-60
2022/11/04 01:18:29;;;;;;;;;;;;;;;;;;5049140;28;19912;-60
2022/11/04 01:20:54;;;;;;;;;;;;;;;;;;5048935;28;19909;-60
2022/11/04 01:23:20;;;;;;;;;;;;;;;;;;5049012;28;19921;-61
2022/11/04 01:25:46;;;;;;;;;;;;;;;;;;5049369;28;20378;-61
2022/11/04 01:28:12;;;;;;;;;;;;;;;;;;5048416;28;19961;-61
2022/11/04 01:30:38;;;;;;;;;;;;;;;;;;5049086;28;20288;-61
2022/11/04 01:33:04;;;;;;;;;;;;;;;;;;5049062;28;19913;-60
2022/11/04 01:35:30;;;;;;;;;;;;;;;;;;5048787;28;20373;-61
2022/11/04 01:37:55;;;;;;;;;;;;;;;;;;5050460;28;19909;-60
2022/11/04 01:40:21;;;;;;;;;;;;;;;;;;5049564;28;20329;-60
2022/11/04 01:42:47;;;;;;;;;;;;;;;;;;5052648;28;19913;-61
2022/11/04 01:45:13;;;;;;;;;;;;;;;;;;5052173;28;19994;-60
2022/11/04 01:47:39;;;;;;;;;;;;;;;;;;5052332;28;19913;-60
2022/11/04 01:50:05;;;;;;;;;;;;;;;;;;5048454;28;20293;-60
2022/11/04 01:52:31;;;;;;;;;;;;;;;;;;5047293;28;19963;-60
2022/11/04 01:54:57;;;;;;;;;;;;;;;;;;5052170;28;19913;-60
2022/11/04 01:57:23;;;;;;;;;;;;;;;;;;5051963;28;19924;-61
2022/11/04 01:59:51;;;;;;;;;;;;;;;;;;5051577;28;20194;-60
2022/11/04 02:02:16;;;;;;;;;;;;;;;;;;5051915;28;20369;-61
2022/11/04 02:04:42;;;;;;;;;;;;;;;;;;5051807;28;19924;-60
2022/11/04 02:07:08;;;;;;;;;;;;;;;;;;5052064;28;19967;-60
2022/11/04 02:09:34;;;;;;;;;;;;;;;;;;5052169;28;20438;-60
2022/11/04 02:14:45;;;;;;;;;;;;;;;;;;5051918;28;20233;-60
2022/11/04 02:17:11;;;;;;;;;;;;;;;;;;5051830;28;20388;-60
2022/11/04 02:19:37;;;;;;;;;;;;;;;;;;5050970;28;20002;-60
2022/11/04 02:22:02;;;;;;;;;;;;;;;;;;5051572;28;19909;-60
2022/11/04 02:24:28;;;;;;;;;;;;;;;;;;5051592;28;19978;-60
2022/11/04 02:26:54;;;;;;;;;;;;;;;;;;5051886;28;19913;-60
2022/11/04 02:29:20;;;;;;;;;;;;;;;;;;5051387;28;19909;-60
2022/11/04 02:31:46;;;;;;;;;;;;;;;;;;5051419;28;19935;-61
2022/11/04 02:34:12;;;;;;;;;;;;;;;;;;5051769;28;19935;-59
2022/11/04 02:36:38;;;;;;;;;;;;;;;;;;5051179;28;20312;-60
2022/11/04 02:39:04;;;;;;;;;;;;;;;;;;5051708;28;19987;-61
2022/11/04 02:41:29;;;;;;;;;;;;;;;;;;5051423;28;19975;-61
2022/11/04 02:43:55;;;;;;;;;;;;;;;;;;5051030;28;19920;-60
2022/11/04 02:46:21;;;;;;;;;;;;;;;;;;5051094;28;19912;-60
2022/11/04 02:48:47;;;;;;;;;;;;;;;;;;5050270;28;19912;-60
2022/11/04 02:51:13;;;;;;;;;;;;;;;;;;5051336;28;19909;-60
2022/11/04 02:53:39;;;;;;;;;;;;;;;;;;5051080;28;19913;-60
2022/11/04 02:56:05;;;;;;;;;;;;;;;;;;5051116;28;19999;-60
2022/11/04 02:58:31;;;;;;;;;;;;;;;;;;5051348;28;20423;-60
2022/11/04 03:00:57;;;;;;;;;;;;;;;;;;5051126;28;20238;-60
2022/11/04 03:03:23;;;;;;;;;;;;;;;;;;5050757;28;20369;-60
2022/11/04 03:05:49;;;;;;;;;;;;;;;;;;5050824;28;19909;-60
2022/11/04 03:08:15;;;;;;;;;;;;;;;;;;5051504;28;19913;-60
2022/11/04 03:10:41;;;;;;;;;;;;;;;;;;5051104;28;19915;-60
2022/11/04 03:13:07;;;;;;;;;;;;;;;;;;5050763;28;19920;-61
2022/11/04 03:15:33;;;;;;;;;;;;;;;;;;5051028;28;20681;-60
2022/11/04 03:17:59;;;;;;;;;;;;;;;;;;5047392;28;19960;-61
2022/11/04 03:20:26;;;;;;;;;;;;;;;;;;5050650;28;19917;-60
2022/11/04 03:22:54;;;;;;;;;;;;;;;;;;5050610;28;20405;-60
2022/11/04 03:25:20;;;;;;;;;;;;;;;;;;5050696;28;20373;-60
2022/11/04 03:27:46;;;;;;;;;;;;;;;;;;5050047;28;19915;-60
2022/11/04 03:30:12;;;;;;;;;;;;;;;;;;5050707;28;20368;-60
2022/11/04 03:32:38;;;;;;;;;;;;;;;;;;5050420;28;19917;-60
2022/11/04 03:35:04;;;;;;;;;;;;;;;;;;5050822;28;19916;-60
2022/11/04 03:37:30;;;;;;;;;;;;;;;;;;5050546;28;20023;-60
2022/11/04 03:39:56;;;;;;;;;;;;;;;;;;5050122;28;19909;-60
2022/11/04 03:42:22;;;;;;;;;;;;;;;;;;5050159;28;20007;-60
2022/11/04 03:44:48;;;;;;;;;;;;;;;;;;5050540;28;20336;-61
2022/11/04 03:47:14;;;;;;;;;;;;;;;;;;5050047;28;20015;-61
2022/11/04 03:49:39;;;;;;;;;;;;;;;;;;5049995;28;20411;-61
2022/11/04 03:52:05;;;;;;;;;;;;;;;;;;5048030;28;19912;-61
2022/11/04 03:54:34;;;;;;;;;;;;;;;;;;5048670;28;19909;-61
2022/11/04 03:57:00;;;;;;;;;;;;;;;;;;5049637;28;20416;-60
2022/11/04 03:59:26;;;;;;;;;;;;;;;;;;5050066;28;20012;-61
2022/11/04 04:01:52;;;;;;;;;;;;;;;;;;5049789;28;20007;-61
2022/11/04 04:04:18;;;;;;;;;;;;;;;;;;5049394;28;19931;-60
2022/11/04 04:06:44;;;;;;;;;;;;;;;;;;5049852;28;19935;-60
2022/11/04 04:09:09;;;;;;;;;;;;;;;;;;5049685;28;19960;-61
2022/11/04 04:11:35;;;;;;;;;;;;;;;;;;5049549;28;19917;-61
2022/11/04 04:14:01;;;;;;;;;;;;;;;;;;5049803;28;20392;-61
2022/11/04 04:16:27;;;;;;;;;;;;;;;;;;5044702;28;19915;-60
2022/11/04 04:18:53;;;;;;;;;;;;;;;;;;5049534;28;20324;-60
2022/11/04 04:21:19;;;;;;;;;;;;;;;;;;5049554;28;19909;-61
2022/11/04 04:29:14;;;;;;;;;;;;;;;;;;5049628;28;19962;-61
2022/11/04 04:31:49;;;;;;;;;;;;;;;;;;5048101;28;19917;-60
2022/11/04 04:34:15;;;;;;;;;;;;;;;;;;5049360;28;19908;-59
2022/11/04 04:36:41;;;;;;;;;;;;;;;;;;5049342;28;19909;-61
2022/11/04 04:47:20;;;;;;;;;;;;;;;;;;5049332;28;19955;-60
2022/11/04 04:49:46;;;;;;;;;;;;;;;;;;5049455;28;20289;-60
2022/11/04 04:52:12;;;;;;;;;;;;;;;;;;5049607;28;19920;-61
2022/11/04 04:54:38;;;;;;;;;;;;;;;;;;5049182;28;19995;-61
2022/11/04 04:57:04;;;;;;;;;;;;;;;;;;5049224;28;19913;-60
2022/11/04 04:59:30;;;;;;;;;;;;;;;;;;5049112;28;19909;-60
2022/11/04 05:01:55;;;;;;;;;;;;;;;;;;5049745;28;19954;-61
2022/11/04 05:04:21;;;;;;;;;;;;;;;;;;5049501;28;19963;-60
2022/11/04 05:06:47;;;;;;;;;;;;;;;;;;5049029;28;20603;-60
2022/11/04 05:09:13;;;;;;;;;;;;;;;;;;5049466;28;20526;-60
2022/11/04 05:11:39;;;;;;;;;;;;;;;;;;5049053;28;19913;-60
2022/11/04 05:14:05;;;;;;;;;;;;;;;;;;5053107;28;19909;-60
2022/11/04 05:16:31;;;;;;;;;;;;;;;;;;5053127;28;19954;-61
2022/11/04 05:18:57;;;;;;;;;;;;;;;;;;5053523;28;19920;-60
2022/11/04 05:21:22;;;;;;;;;;;;;;;;;;5052793;28;19962;-60
2022/11/04 05:23:48;;;;;;;;;;;;;;;;;;5050413;28;20075;-61
2022/11/04 05:26:14;;;;;;;;;;;;;;;;;;5048698;28;19925;-60
2022/11/04 05:28:40;;;;;;;;;;;;;;;;;;5053272;28;20002;-60
2022/11/04 05:31:06;;;;;;;;;;;;;;;;;;5052787;28;20396;-60
2022/11/04 05:33:32;;;;;;;;;;;;;;;;;;5052996;28;19908;-61
2022/11/04 05:35:58;;;;;;;;;;;;;;;;;;5052548;28;19915;-60
2022/11/04 05:38:24;;;;;;;;;;;;;;;;;;5052322;28;19995;-61
2022/11/04 05:40:50;;;;;;;;;;;;;;;;;;5051877;28;20371;-61
2022/11/04 05:43:15;;;;;;;;;;;;;;;;;;5052493;28;19963;-59
2022/11/04 05:45:41;;;;;;;;;;;;;;;;;;5052687;28;19913;-60
2022/11/04 05:48:07;;;;;;;;;;;;;;;;;;5052712;28;19917;-61
2022/11/04 05:50:33;;;;;;;;;;;;;;;;;;5052573;28;20437;-60
2022/11/04 05:52:59;;;;;;;;;;;;;;;;;;5048089;28;19920;-60
2022/11/04 05:55:25;;;;;;;;;;;;;;;;;;5052777;28;19913;-61
2022/11/04 05:57:51;;;;;;;;;;;;;;;;;;5052537;28;20364;-61
2022/11/04 06:00:17;;;;;;;;;;;;;;;;;;5052699;28;19912;-60
2022/11/04 06:02:43;;;;;;;;;;;;;;;;;;5052608;28;20381;-60
2022/11/04 06:05:09;;;;;;;;;;;;;;;;;;5051819;28;20020;-60
2022/11/04 06:07:35;;;;;;;;;;;;;;;;;;5033563;28;20419;-60
2022/11/04 06:10:01;;;;;;;;;;;;;;;;;;5052260;28;19916;-60
2022/11/04 06:12:26;;;;;;;;;;;;;;;;;;5052160;28;19987;-60
2022/11/04 06:14:52;;;;;;;;;;;;;;;;;;5051569;28;19912;-60
2022/11/04 06:17:18;;;;;;;;;;;;;;;;;;5051889;28;19917;-60
2022/11/04 06:19:44;;;;;;;;;;;;;;;;;;5052277;28;19994;-61
2022/11/04 06:22:10;;;;;;;;;;;;;;;;;;5051261;28;19909;-60
2022/11/04 06:24:36;;;;;;;;;;;;;;;;;;5051250;28;19936;-59
2022/11/04 06:27:02;;;;;;;;;;;;;;;;;;5051511;28;20029;-60
2022/11/04 06:29:28;;;;;;;;;;;;;;;;;;5051416;28;19913;-60
2022/11/04 06:31:53;;;;;;;;;;;;;;;;;;5051897;28;19916;-60
2022/11/04 06:34:19;;;;;;;;;;;;;;;;;;5051109;28;19909;-60
2022/11/04 06:36:45;;;;;;;;;;;;;;;;;;5050769;28;19913;-61
2022/11/04 06:39:11;;;;;;;;;;;;;;;;;;5051438;28;19909;-60
2022/11/04 06:41:37;;;;;;;;;;;;;;;;;;5052032;28;20015;-61
2022/11/04 06:44:03;;;;;;;;;;;;;;;;;;5050898;28;20035;-61
2022/11/04 06:46:29;;;;;;;;;;;;;;;;;;5044909;28;20401;-61
2022/11/04 06:48:55;;;;;;;;;;;;;;;;;;5049890;28;19909;-61
2022/11/04 06:51:21;;;;;;;;;;;;;;;;;;5050673;28;19908;-71
2022/11/04 06:53:46;;;;;;;;;;;;;;;;;;5051134;28;19909;-69
2022/11/04 06:56:12;;;;;;;;;;;;;;;;;;5051351;28;19916;-69
2022/11/04 06:58:38;;;;;;;;;;;;;;;;;;5033099;28;19912;-70
2022/11/04 07:01:04;;;;;;;;;;;;;;;;;;5050004;28;19923;-69
2022/11/04 07:03:30;;;;;;;;;;;;;;;;;;5050441;28;19963;-70
2022/11/04 07:05:56;;;;;;;;;;;;;;;;;;5050047;28;19909;-70
2022/11/04 07:08:22;;;;;;;;;;;;;;;;;;5050968;28;19914;-70
2022/11/04 07:10:48;;;;;;;;;;;;;;;;;;5051126;28;19909;-68
2022/11/04 07:13:15;;;;;;;;;;;;;;;;;;5050337;28;19913;-77
2022/11/04 07:15:41;;;;;;;;;;;;;;;;;;5050120;28;19952;-76
2022/11/04 07:18:07;;;;;;;;;;;;;;;;;;5050164;28;19939;-76
2022/11/04 07:20:33;;;;;;;;;;;;;;;;;;5050265;28;20373;-76
2022/11/04 07:22:59;;;;;;;;;;;;;;;;;;5050178;28;19913;-74
2022/11/04 07:25:24;;;;;;;;;;;;;;;;;;5044375;28;19927;-76
2022/11/04 07:27:50;;;;;;;;;;;;;;;;;;5046093;28;20448;-76
2022/11/04 07:30:19;;;;;;;;;;;;;;;;;;5048865;28;19921;-76
2022/11/04 07:32:45;;;;;;;;;;;;;;;;;;5046078;28;20035;-76
2022/11/04 07:35:10;;;;;;;;;;;;;;;;;;5047612;28;20047;-78
2022/11/04 07:37:36;;;;;;;;;;;;;;;;;;5050823;28;20296;-77
2022/11/04 07:40:03;;;;;;;;;;;;;;;;;;5047397;28;19920;-76
2022/11/04 07:42:29;;;;;;;;;;;;;;;;;;5049868;28;19917;-76
2022/11/04 07:44:55;;;;;;;;;;;;;;;;;;5050216;28;20385;-77
2022/11/04 07:47:21;;;;;;;;;;;;;;;;;;5050365;28;19962;-77
2022/11/04 07:49:47;;;;;;;;;;;;;;;;;;5050261;28;19913;-77
2022/11/04 07:52:13;;;;;;;;;;;;;;;;;;5047837;28;19912;-76
2022/11/04 07:54:39;;;;;;;;;;;;;;;;;;5050676;28;19932;-78
2022/11/04 07:57:04;;;;;;;;;;;;;;;;;;5049842;28;19931;-78
2022/11/04 07:59:31;;;;;;;;;;;;;;;;;;5050078;28;19947;-78
2022/11/04 08:01:57;;;;;;;;;;;;;;;;;;5050231;28;19987;-77
2022/11/04 08:04:22;;;;;;;;;;;;;;;;;;5049769;28;19925;-78
2022/11/04 08:06:48;;;;;;;;;;;;;;;;;;5050657;28;20293;-77
2022/11/04 08:09:15;;;;;;;;;;;;;;;;;;5050630;28;19924;-77
2022/11/04 08:11:40;;;;;;;;;;;;;;;;;;5050121;28;19913;-78
2022/11/04 08:14:06;;;;;;;;;;;;;;;;;;5049833;28;19924;-77
2022/11/04 08:16:32;;;;;;;;;;;;;;;;;;5046837;28;19937;-77
2022/11/04 08:19:00;;;;;;;;;;;;;;;;;;5049415;28;19938;-78
2022/11/04 08:21:26;;;;;;;;;;;;;;;;;;5050033;28;19916;-77
2022/11/04 08:23:52;;;;;;;;;;;;;;;;;;5049775;28;19917;-76
2022/11/04 08:26:18;;;;;;;;;;;;;;;;;;5049998;28;19925;-77
2022/11/04 08:28:44;;;;;;;;;;;;;;;;;;5049697;28;20335;-77
2022/11/04 08:31:10;;;;;;;;;;;;;;;;;;5050075;28;19913;-78
2022/11/04 08:33:36;;;;;;;;;;;;;;;;;;5049478;28;19919;-77
2022/11/04 08:36:02;;;;;;;;;;;;;;;;;;5049722;28;20365;-78
2022/11/04 08:38:28;;;;;;;;;;;;;;;;;;5049368;28;20035;-78
2022/11/04 08:40:53;;;;;;;;;;;;;;;;;;5049586;28;19920;-73
2022/11/04 08:43:19;;;;;;;;;;;;;;;;;;5049145;28;19970;-78
2022/11/04 08:45:45;;;;;;;;;;;;;;;;;;5049628;28;19912;-79
2022/11/04 08:48:11;;;;;;;;;;;;;;;;;;5051944;28;20313;-79
2022/11/04 08:50:37;;;;;;;;;;;;;;;;;;5054286;28;20358;-78
2022/11/04 08:53:03;;;;;;;;;;;;;;;;;;5053869;28;19908;-79
2022/11/04 08:55:29;;;;;;;;;;;;;;;;;;5053916;28;20369;-78
2022/11/04 08:57:55;;;;;;;;;;;;;;;;;;5053833;28;20003;-78
2022/11/04 09:00:21;;;;;;;;;;;;;;;;;;5053581;28;19912;-78
2022/11/04 09:02:47;;;;;;;;;;;;;;;;;;5053512;28;19948;-78
2022/11/04 09:05:13;;;;;;;;;;;;;;;;;;5053365;28;19955;-78
2022/11/04 09:07:39;;;;;;;;;;;;;;;;;;5047029;28;20011;-77
2022/11/04 09:10:05;;;;;;;;;;;;;;;;;;5053493;28;20444;-78
2022/11/04 09:12:32;;;;;;;;;;;;;;;;;;5053596;28;19913;-77
2022/11/04 09:14:57;;;;;;;;;;;;;;;;;;5053009;28;19913;-77
2022/11/04 09:17:24;;;;;;;;;;;;;;;;;;5053376;28;19920;-78
2022/11/04 09:19:50;;;;;;;;;;;;;;;;;;5048501;28;20011;-78
2022/11/04 09:22:16;;;;;;;;;;;;;;;;;;5052983;28;20354;-78
2022/11/04 09:24:42;;;;;;;;;;;;;;;;;;5052893;28;20646;-78
2022/11/04 09:27:08;;;;;;;;;;;;;;;;;;5052830;28;20373;-79
2022/11/04 09:29:35;;;;;;;;;;;;;;;;;;5052525;28;20387;-79
2022/11/04 09:32:01;;;;;;;;;;;;;;;;;;5053420;28;19915;-80
2022/11/04 09:34:27;;;;;;;;;;;;;;;;;;5052911;28;20004;-80
2022/11/04 09:36:52;;;;;;;;;;;;;;;;;;5052746;28;19913;-80
2022/11/04 09:39:18;;;;;;;;;;;;;;;;;;5053334;28;19908;-80
2022/11/04 09:41:44;;;;;;;;;;;;;;;;;;5052977;28;19916;-79
2022/11/04 09:44:10;;;;;;;;;;;;;;;;;;5052351;28;19920;-79
2022/11/04 09:46:36;;;;;;;;;;;;;;;;;;5052744;28;19952;-79
2022/11/04 09:49:02;;;;;;;;;;;;;;;;;;5052896;28;20292;-79
2022/11/04 09:51:28;;;;;;;;;;;;;;;;;;5052379;28;19920;-80
2022/11/04 09:53:55;;;;;;;;;;;;;;;;;;5052895;28;19920;-78
2022/11/04 09:56:21;;;;;;;;;;;;;;;;;;5052495;28;19934;-79
2022/11/04 09:58:46;;;;;;;;;;;;;;;;;;5051338;28;20007;-78
2022/11/04 10:01:12;;;;;;;;;;;;;;;;;;5052082;28;19916;-79
2022/11/04 10:03:38;;;;;;;;;;;;;;;;;;5052296;28;19921;-78
2022/11/04 10:06:04;;;;;;;;;;;;;;;;;;5052384;28;19912;-78
2022/11/04 10:08:30;;;;;;;;;;;;;;;;;;5052380;28;19935;-80
2022/11/04 10:10:56;;;;;;;;;;;;;;;;;;5052384;28;20382;-79
2022/11/04 10:13:22;;;;;;;;;;;;;;;;;;5045407;28;20042;-80
2022/11/04 10:15:48;;;;;;;;;;;;;;;;;;5046651;28;19956;-78
2022/11/04 10:18:14;;;;;;;;;;;;;;;;;;5051596;28;19915;-79
2022/11/04 10:20:39;;;;;;;;;;;;;;;;;;5052128;28;19917;-77
2022/11/04 10:23:05;;;;;;;;;;;;;;;;;;5048450;28;19974;-79
2022/11/04 10:25:31;;;;;;;;;;;;;;;;;;5051872;28;19925;-79
2022/11/04 10:27:58;;;;;;;;;;;;;;;;;;5051885;28;19909;-80
2022/11/04 10:30:23;;;;;;;;;;;;;;;;;;5052164;28;19908;-79
2022/11/04 10:32:50;;;;;;;;;;;;;;;;;;5051948;28;20003;-80
2022/11/04 10:35:16;;;;;;;;;;;;;;;;;;5051819;28;19913;-77
2022/11/04 10:37:42;;;;;;;;;;;;;;;;;;5051683;28;19966;-80
2022/11/04 10:40:08;;;;;;;;;;;;;;;;;;5051664;28;20401;-80
2022/11/04 10:42:34;;;;;;;;;;;;;;;;;;5051848;28;20012;-79
2022/11/04 10:45:00;;;;;;;;;;;;;;;;;;5051574;28;20007;-78
2022/11/04 10:47:26;;;;;;;;;;;;;;;;;;5051422;28;19913;-77
2022/11/04 10:49:51;;;;;;;;;;;;;;;;;;5051625;28;19927;-78
2022/11/04 10:52:17;;;;;;;;;;;;;;;;;;5051724;28;20460;-78
2022/11/04 10:54:43;;;;;;;;;;;;;;;;;;5051046;28;19962;-77
2022/11/04 10:57:10;;;;;;;;;;;;;;;;;;5033139;28;19971;-78
2022/11/04 10:59:36;;;;;;;;;;;;;;;;;;5051689;28;19913;-77
2022/11/04 11:02:02;;;;;;;;;;;;;;;;;;5051271;28;19939;-77
2022/11/04 11:04:28;;;;;;;;;;;;;;;;;;5051355;28;20297;-76
2022/11/04 11:06:54;;;;;;;;;;;;;;;;;;5051176;28;19909;-77
2022/11/04 11:09:21;;;;;;;;;;;;;;;;;;5050954;28;20276;-77
2022/11/04 11:11:47;;;;;;;;;;;;;;;;;;5050772;28;19931;-76
2022/11/04 11:14:13;;;;;;;;;;;;;;;;;;5051136;28;19912;-77
2022/11/04 11:16:39;;;;;;;;;;;;;;;;;;5050002;28;19913;-76
2022/11/04 11:19:05;;;;;;;;;;;;;;;;;;5043779;28;19985;-77
2022/11/04 11:21:30;;;;;;;;;;;;;;;;;;5036501;28;19916;-76
2022/11/04 11:23:56;;;;;;;;;;;;;;;;;;5047566;28;19924;-77
2022/11/04 11:26:22;;;;;;;;;;;;;;;;;;5048089;28;20000;-79
2022/11/04 11:28:48;;;;;;;;;;;;;;;;;;5048999;28;19916;-76
2022/11/04 11:31:23;;;;;;;;;;;;;;;;;;5047478;28;19920;-76
2022/11/04 11:33:49;;;;;;;;;;;;;;;;;;5048979;28;20369;-76
2022/11/04 11:36:15;;;;;;;;;;;;;;;;;;5048788;28;19994;-76
2022/11/04 11:38:41;;;;;;;;;;;;;;;;;;5048915;28;19963;-77
2022/11/04 11:41:07;;;;;;;;;;;;;;;;;;5049050;28;19923;-72
2022/11/04 11:43:33;;;;;;;;;;;;;;;;;;5049163;28;19929;-77
2022/11/04 11:45:59;;;;;;;;;;;;;;;;;;5045668;28;19971;-79
2022/11/04 11:48:25;;;;;;;;;;;;;;;;;;5048154;28;19959;-77
2022/11/04 11:50:52;;;;;;;;;;;;;;;;;;5047280;28;19960;-75
2022/11/04 11:53:23;;;;;;;;;;;;;;;;;;5048134;28;19913;-79
2022/11/04 11:55:49;;;;;;;;;;;;;;;;;;5042934;28;19921;-76
2022/11/04 11:58:15;;;;;;;;;;;;;;;;;;5046440;28;19916;-77
2022/11/04 12:00:40;;;;;;;;;;;;;;;;;;5048946;28;19917;-76
2022/11/04 12:03:07;;;;;;;;;;;;;;;;;;5048368;28;19935;-75
2022/11/04 12:05:33;;;;;;;;;;;;;;;;;;5047985;28;20464;-76
2022/11/04 12:08:00;;;;;;;;;;;;;;;;;;5047938;28;19940;-76
2022/11/04 12:10:26;;;;;;;;;;;;;;;;;;5048237;28;20357;-76
2022/11/04 12:12:52;;;;;;;;;;;;;;;;;;5048177;28;19913;-75
2022/11/04 12:15:18;;;;;;;;;;;;;;;;;;5048060;28;19935;-74
2022/11/04 12:17:44;;;;;;;;;;;;;;;;;;5047857;28;19921;-75
2022/11/04 12:20:10;;;;;;;;;;;;;;;;;;5047171;28;20301;-74
2022/11/04 12:22:35;;;;;;;;;;;;;;;;;;5047383;28;19931;-73
2022/11/04 12:25:03;;;;;;;;;;;;;;;;;;5048027;28;19968;-74
2022/11/04 12:27:29;;;;;;;;;;;;;;;;;;5047715;28;20620;-74
2022/11/04 12:29:55;;;;;;;;;;;;;;;;;;5033609;28;19917;-74
2022/11/04 12:32:21;;;;;;;;;;;;;;;;;;5047655;28;19952;-74
2022/11/04 12:34:47;;;;;;;;;;;;;;;;;;5046944;28;19917;-74
2022/11/04 12:37:13;;;;;;;;;;;;;;;;;;5047469;28;19917;-74
2022/11/04 12:39:39;;;;;;;;;;;;;;;;;;5047312;28;20384;-76
2022/11/04 12:42:05;;;;;;;;;;;;;;;;;;5047452;28;19956;-75
2022/11/04 12:44:31;;;;;;;;;;;;;;;;;;5047637;28;19959;-76
2022/11/04 12:46:57;;;;;;;;;;;;;;;;;;5046302;28;20031;-77
2022/11/04 12:49:23;;;;;;;;;;;;;;;;;;5047608;28;19928;-75
2022/11/04 12:51:49;;;;;;;;;;;;;;;;;;5047694;28;19924;-75
2022/11/04 12:54:15;;;;;;;;;;;;;;;;;;5042954;28;20374;-77
2022/11/04 12:56:40;;;;;;;;;;;;;;;;;;5044437;28;19913;-79
2022/11/04 12:59:07;;;;;;;;;;;;;;;;;;5046728;28;20377;-77
2022/11/04 13:01:33;;;;;;;;;;;;;;;;;;5041832;28;19913;-76
2022/11/04 13:03:59;;;;;;;;;;;;;;;;;;5047043;28;20393;-84
2022/11/04 13:06:25;;;;;;;;;;;;;;;;;;5048053;28;20070;-81
2022/11/04 13:08:51;;;;;;;;;;;;;;;;;;5047545;28;19913;-83
2022/11/04 13:11:22;;;;;;;;;;;;;;;;;;5044063;28;19913;-76
2022/11/04 13:13:48;;;;;;;;;;;;;;;;;;5046801;28;19913;-76
2022/11/04 13:16:14;;;;;;;;;;;;;;;;;;5047205;28;19971;-75
2022/11/04 13:18:40;;;;;;;;;;;;;;;;;;5046822;28;20450;-76
2022/11/04 13:21:07;;;;;;;;;;;;;;;;;;5047711;28;19912;-73
2022/11/04 13:23:32;;;;;;;;;;;;;;;;;;5046924;28;19917;-78
2022/11/04 13:25:58;;;;;;;;;;;;;;;;;;5046690;28;19931;-77
2022/11/04 13:28:24;;;;;;;;;;;;;;;;;;5047164;28;20301;-78
2022/11/04 13:30:50;;;;;;;;;;;;;;;;;;5047148;28;19921;-74
2022/11/04 13:33:16;;;;;;;;;;;;;;;;;;5048255;28;20365;-74
2022/11/04 13:35:42;;;;;;;;;;;;;;;;;;5051377;28;19916;-72
2022/11/04 13:38:11;;;;;;;;;;;;;;;;;;5050410;28;20409;-72
2022/11/04 13:40:37;;;;;;;;;;;;;;;;;;5051151;28;19916;-71
2022/11/04 13:45:58;;;;;;;;;;;;;;;;;;5031732;28;19924;-74
2022/11/04 13:48:25;;;;;;;;;;;;;;;;;;5051078;28;19912;-73
2022/11/04 13:50:51;;;;;;;;;;;;;;;;;;5049944;28;19979;-71
2022/11/04 13:53:16;;;;;;;;;;;;;;;;;;5050773;28;19921;-73
2022/11/04 13:55:42;;;;;;;;;;;;;;;;;;5050663;28;20015;-72
2022/11/04 13:58:08;;;;;;;;;;;;;;;;;;5050509;28;20305;-72
2022/11/04 14:00:36;;;;;;;;;;;;;;;;;;5050871;28;19913;-72
2022/11/04 14:03:02;;;;;;;;;;;;;;;;;;5050558;28;19916;-72
2022/11/04 14:05:28;;;;;;;;;;;;;;;;;;5050956;28;19931;-73
2022/11/04 14:07:54;;;;;;;;;;;;;;;;;;5050004;28;19913;-73
2022/11/04 14:10:20;;;;;;;;;;;;;;;;;;5049454;28;19916;-76
2022/11/04 14:12:46;;;;;;;;;;;;;;;;;;5048019;28;20285;-68
2022/11/04 14:15:12;;;;;;;;;;;;;;;;;;5050126;28;19917;-75
2022/11/04 14:17:37;;;;;;;;;;;;;;;;;;5049579;28;20425;-75
2022/11/04 14:20:06;;;;;;;;;;;;;;;;;;5046748;28;20403;-75
2022/11/04 14:22:32;;;;;;;;;;;;;;;;;;5046841;28;19936;-75
2022/11/04 14:24:58;;;;;;;;;;;;;;;;;;5049671;28;19963;-75
2022/11/04 14:27:24;;;;;;;;;;;;;;;;;;5049469;28;20053;-74
2022/11/04 14:29:50;;;;;;;;;;;;;;;;;;5047456;28;20415;-75
2022/11/04 14:32:16;;;;;;;;;;;;;;;;;;5047621;28;19996;-73
2022/11/04 14:34:43;;;;;;;;;;;;;;;;;;5045356;28;19913;-75
2022/11/04 14:37:09;;;;;;;;;;;;;;;;;;5048939;28;19917;-75
2022/11/04 14:39:35;;;;;;;;;;;;;;;;;;5048283;28;19917;-70
2022/11/04 14:42:01;;;;;;;;;;;;;;;;;;5048880;28;20019;-77
2022/11/04 14:44:27;;;;;;;;;;;;;;;;;;5048553;28;19928;-75
2022/11/04 14:46:52;;;;;;;;;;;;;;;;;;5049640;28;19913;-76
2022/11/04 14:49:18;;;;;;;;;;;;;;;;;;5047851;28;19912;-76
2022/11/04 14:51:44;;;;;;;;;;;;;;;;;;5049286;28;19921;-73
2022/11/04 14:54:10;;;;;;;;;;;;;;;;;;5049863;28;20042;-75
2022/11/04 14:56:36;;;;;;;;;;;;;;;;;;5049380;28;20389;-75
2022/11/04 14:59:02;;;;;;;;;;;;;;;;;;5049461;28;19999;-74
2022/11/04 15:01:28;;;;;;;;;;;;;;;;;;5049560;28;19928;-75
2022/11/04 15:03:54;;;;;;;;;;;;;;;;;;5049126;28;19921;-74
2022/11/04 15:06:20;;;;;;;;;;;;;;;;;;5049270;28;19921;-74
2022/11/04 15:08:46;;;;;;;;;;;;;;;;;;5049531;28;19916;-72
2022/11/04 15:11:12;;;;;;;;;;;;;;;;;;5049480;28;19959;-76
2022/11/04 15:13:38;;;;;;;;;;;;;;;;;;5047262;28;19913;-75
2022/11/04 15:16:03;;;;;;;;;;;;;;;;;;5048750;28;19917;-74
2022/11/04 15:18:29;;;;;;;;;;;;;;;;;;5049158;28;19916;-77
2022/11/04 15:20:55;;;;;;;;;;;;;;;;;;5049309;28;19960;-77
2022/11/04 15:23:21;;;;;;;;;;;;;;;;;;5048796;28;19917;-75
2022/11/04 15:25:47;;;;;;;;;;;;;;;;;;5048782;28;19932;-73
2022/11/04 15:28:13;;;;;;;;;;;;;;;;;;5049067;28;19958;-73
2022/11/04 15:30:39;;;;;;;;;;;;;;;;;;5046027;28;19958;-73
2022/11/04 15:33:05;;;;;;;;;;;;;;;;;;5038045;28;20415;-74
2022/11/04 15:35:31;;;;;;;;;;;;;;;;;;5048909;28;19916;-75
2022/11/04 15:37:57;;;;;;;;;;;;;;;;;;5048779;28;19917;-74
2022/11/04 15:40:23;;;;;;;;;;;;;;;;;;5048928;28;20415;-75
2022/11/04 15:42:49;;;;;;;;;;;;;;;;;;5047942;28;19913;-76
2022/11/04 15:45:15;;;;;;;;;;;;;;;;;;5048760;28;19979;-75
2022/11/04 15:47:41;;;;;;;;;;;;;;;;;;5048068;28;19948;-79
2022/11/04 15:50:06;;;;;;;;;;;;;;;;;;5048168;28;19916;-71
2022/11/04 15:52:32;;;;;;;;;;;;;;;;;;5042681;28;19917;-74
2022/11/04 15:54:58;;;;;;;;;;;;;;;;;;5046175;28;20419;-69
2022/11/04 15:57:24;;;;;;;;;;;;;;;;;;5041103;28;19924;-73
2022/11/04 15:59:50;;;;;;;;;;;;;;;;;;5044194;28;19913;-75
2022/11/04 16:02:16;;;;;;;;;;;;;;;;;;5043577;28;19917;-75
2022/11/04 16:04:42;;;;;;;;;;;;;;;;;;5044148;28;20684;-78
2022/11/04 16:07:08;;;;;;;;;;;;;;;;;;5044332;28;19923;-71
2022/11/04 16:09:34;;;;;;;;;;;;;;;;;;5046255;28;20531;-74
2022/11/04 16:11:59;;;;;;;;;;;;;;;;;;5046254;28;19920;-74
2022/11/04 16:14:25;;;;;;;;;;;;;;;;;;5046869;28;19928;-75
2022/11/04 16:16:51;;;;;;;;;;;;;;;;;;5044810;28;19923;-75
2022/11/04 16:19:18;;;;;;;;;;;;;;;;;;5046683;28;19913;-73
2022/11/04 16:21:44;;;;;;;;;;;;;;;;;;5047418;28;19965;-74
2022/11/04 16:24:10;;;;;;;;;;;;;;;;;;5047376;28;19924;-73
2022/11/04 16:26:36;;;;;;;;;;;;;;;;;;5044468;28;19982;-75
2022/11/04 16:29:02;;;;;;;;;;;;;;;;;;5047339;28;19928;-74
2022/11/04 16:31:29;;;;;;;;;;;;;;;;;;5047001;28;20473;-76
2022/11/04 16:33:54;;;;;;;;;;;;;;;;;;5047526;28;19920;-74
2022/11/04 16:36:23;;;;;;;;;;;;;;;;;;5047644;28;19951;-73
2022/11/04 16:38:49;;;;;;;;;;;;;;;;;;5044521;28;19932;-74
2022/11/04 16:41:15;;;;;;;;;;;;;;;;;;5046891;28;19935;-74
2022/11/04 16:43:41;;;;;;;;;;;;;;;;;;5047568;28;19936;-75
2022/11/04 16:46:07;;;;;;;;;;;;;;;;;;5046703;28;19923;-76
2022/11/04 16:48:33;;;;;;;;;;;;;;;;;;5043925;28;19912;-73
2022/11/04 16:50:59;;;;;;;;;;;;;;;;;;5047076;28;20388;-74
2022/11/04 16:53:25;;;;;;;;;;;;;;;;;;5047132;28;19951;-72
2022/11/04 16:55:51;;;;;;;;;;;;;;;;;;5046918;28;19920;-77
2022/11/04 16:58:17;;;;;;;;;;;;;;;;;;5045616;28;20705;-75
2022/11/04 17:00:43;;;;;;;;;;;;;;;;;;5047076;28;19916;-75
2022/11/04 17:03:09;;;;;;;;;;;;;;;;;;5047280;28;19950;-73
2022/11/04 17:05:35;;;;;;;;;;;;;;;;;;5047236;28;19960;-74
2022/11/04 17:08:00;;;;;;;;;;;;;;;;;;5047649;28;20316;-75
2022/11/04 17:10:26;;;;;;;;;;;;;;;;;;5048600;28;19963;-76
2022/11/04 17:12:52;;;;;;;;;;;;;;;;;;5051041;28;20658;-74